sensor_id;sensor_type;location;lat;lon;timestamp;P1;durP1;ratioP1;P2;durP2;ratioP2
40537;SDS011;27925;41.874;12.526;2024-03-08T00:02:23;27.25;;;17.88;;
40537;SDS011;27925;41.874;12.526;2024-03-08T00:04:49;25.67;;;17.17;;
40537;SDS011;27925;41.874;12.526;2024-03-08T00:07:14;29.13;;;17.95;;
40537;SDS011;27925;41.874;12.526;2024-03-08T00:09:40;27.30;;;18.40;;
40537;SDS011;27925;41.874;12.526;2024-03-08T00:12:06;25.83;;;18.17;;
40537;SDS011;27925;41.874;12.526;2024-03-08T00:14:31;27.98;;;18.17;;
40537;SDS011;27925;41.874;12.526;2024-03-08T00:16:58;24.77;;;17.33;;
40537;SDS011;27925;41.874;12.526;2024-03-08T00:19:23;27.05;;;18.33;;
40537;SDS011;27925;41.874;12.526;2024-03-08T00:21:49;27.92;;;17.40;;
40537;SDS011;27925;41.874;12.526;2024-03-08T00:24:15;25.00;;;17.60;;
40537;SDS011;27925;41.874;12.526;2024-03-08T00:26:40;25.95;;;18.42;;
40537;SDS011;27925;41.874;12.526;2024-03-08T00:29:07;29.95;;;17.17;;
40537;SDS011;27925;41.874;12.526;2024-03-08T00:31:33;29.00;;;18.95;;
40537;SDS011;27925;41.874;12.526;2024-03-08T00:33:58;23.13;;;15.93;;
40537;SDS011;27925;41.874;12.526;2024-03-08T00:36:24;22.73;;;16.52;;
40537;SDS011;27925;41.874;12.526;2024-03-08T00:38:50;23.83;;;15.55;;
40537;SDS011;27925;41.874;12.526;2024-03-08T00:41:16;22.30;;;14.55;;
40537;SDS011;27925;41.874;12.526;2024-03-08T00:43:41;25.58;;;15.00;;
40537;SDS011;27925;41.874;12.526;2024-03-08T00:46:07;22.33;;;14.50;;
40537;SDS011;27925;41.874;12.526;2024-03-08T00:48:32;22.38;;;14.88;;
40537;SDS011;27925;41.874;12.526;2024-03-08T00:50:58;27.05;;;14.20;;
40537;SDS011;27925;41.874;12.526;2024-03-08T00:53:24;23.02;;;14.73;;
40537;SDS011;27925;41.874;12.526;2024-03-08T00:55:50;22.55;;;14.30;;
40537;SDS011;27925;41.874;12.526;2024-03-08T00:58:15;23.38;;;14.63;;
40537;SDS011;27925;41.874;12.526;2024-03-08T01:00:41;22.30;;;14.00;;
40537;SDS011;27925;41.874;12.526;2024-03-08T01:03:07;23.40;;;13.75;;
40537;SDS011;27925;41.874;12.526;2024-03-08T01:05:33;20.88;;;14.07;;
40537;SDS011;27925;41.874;12.526;2024-03-08T01:08:00;21.33;;;13.63;;
40537;SDS011;27925;41.874;12.526;2024-03-08T01:10:28;22.30;;;13.10;;
40537;SDS011;27925;41.874;12.526;2024-03-08T01:12:54;19.73;;;12.95;;
40537;SDS011;27925;41.874;12.526;2024-03-08T01:15:21;22.70;;;13.40;;
40537;SDS011;27925;41.874;12.526;2024-03-08T01:17:48;19.52;;;12.90;;
40537;SDS011;27925;41.874;12.526;2024-03-08T01:20:13;24.67;;;14.13;;
40537;SDS011;27925;41.874;12.526;2024-03-08T01:22:40;23.00;;;13.25;;
40537;SDS011;27925;41.874;12.526;2024-03-08T01:25:06;21.40;;;13.02;;
40537;SDS011;27925;41.874;12.526;2024-03-08T01:27:33;21.33;;;13.73;;
40537;SDS011;27925;41.874;12.526;2024-03-08T01:30:00;18.63;;;12.88;;
40537;SDS011;27925;41.874;12.526;2024-03-08T01:32:26;19.20;;;13.20;;
40537;SDS011;27925;41.874;12.526;2024-03-08T01:34:51;21.05;;;12.57;;
40537;SDS011;27925;41.874;12.526;2024-03-08T01:37:17;16.77;;;11.65;;
40537;SDS011;27925;41.874;12.526;2024-03-08T01:39:43;17.75;;;12.23;;
40537;SDS011;27925;41.874;12.526;2024-03-08T01:42:08;20.60;;;12.65;;
40537;SDS011;27925;41.874;12.526;2024-03-08T01:44:38;24.52;;;13.38;;
40537;SDS011;27925;41.874;12.526;2024-03-08T01:47:04;17.55;;;12.80;;
40537;SDS011;27925;41.874;12.526;2024-03-08T01:49:30;20.23;;;13.40;;
40537;SDS011;27925;41.874;12.526;2024-03-08T01:51:56;19.70;;;12.15;;
40537;SDS011;27925;41.874;12.526;2024-03-08T01:54:22;19.85;;;12.77;;
40537;SDS011;27925;41.874;12.526;2024-03-08T01:56:48;19.25;;;12.45;;
40537;SDS011;27925;41.874;12.526;2024-03-08T01:59:14;18.85;;;11.52;;
40537;SDS011;27925;41.874;12.526;2024-03-08T02:01:41;18.15;;;12.38;;
40537;SDS011;27925;41.874;12.526;2024-03-08T02:04:07;19.52;;;12.23;;
40537;SDS011;27925;41.874;12.526;2024-03-08T02:06:33;18.33;;;12.10;;
40537;SDS011;27925;41.874;12.526;2024-03-08T02:08:59;17.45;;;11.30;;
40537;SDS011;27925;41.874;12.526;2024-03-08T02:11:25;16.83;;;11.27;;
40537;SDS011;27925;41.874;12.526;2024-03-08T02:13:51;18.05;;;11.32;;
40537;SDS011;27925;41.874;12.526;2024-03-08T02:16:20;19.10;;;11.15;;
40537;SDS011;27925;41.874;12.526;2024-03-08T02:18:47;16.95;;;11.45;;
40537;SDS011;27925;41.874;12.526;2024-03-08T02:21:13;17.33;;;10.90;;
40537;SDS011;27925;41.874;12.526;2024-03-08T02:23:43;17.58;;;11.00;;
40537;SDS011;27925;41.874;12.526;2024-03-08T02:26:09;22.23;;;11.63;;
40537;SDS011;27925;41.874;12.526;2024-03-08T02:28:34;17.27;;;10.60;;
40537;SDS011;27925;41.874;12.526;2024-03-08T02:31:01;16.48;;;11.25;;
40537;SDS011;27925;41.874;12.526;2024-03-08T02:33:27;16.77;;;10.80;;
40537;SDS011;27925;41.874;12.526;2024-03-08T02:35:54;17.83;;;11.43;;
40537;SDS011;27925;41.874;12.526;2024-03-08T02:38:21;16.23;;;11.93;;
40537;SDS011;27925;41.874;12.526;2024-03-08T02:40:49;16.30;;;11.65;;
40537;SDS011;27925;41.874;12.526;2024-03-08T02:43:16;14.38;;;10.13;;
40537;SDS011;27925;41.874;12.526;2024-03-08T02:45:43;15.75;;;10.93;;
40537;SDS011;27925;41.874;12.526;2024-03-08T02:48:10;16.23;;;11.25;;
40537;SDS011;27925;41.874;12.526;2024-03-08T02:50:36;17.85;;;11.05;;
40537;SDS011;27925;41.874;12.526;2024-03-08T02:53:04;18.83;;;11.15;;
40537;SDS011;27925;41.874;12.526;2024-03-08T02:55:30;18.38;;;11.65;;
40537;SDS011;27925;41.874;12.526;2024-03-08T02:57:56;19.00;;;11.25;;
40537;SDS011;27925;41.874;12.526;2024-03-08T03:00:22;17.15;;;11.23;;
40537;SDS011;27925;41.874;12.526;2024-03-08T03:02:48;17.98;;;11.40;;
40537;SDS011;27925;41.874;12.526;2024-03-08T03:05:19;19.23;;;11.55;;
40537;SDS011;27925;41.874;12.526;2024-03-08T03:07:47;14.13;;;10.27;;
40537;SDS011;27925;41.874;12.526;2024-03-08T03:10:13;16.80;;;10.82;;
40537;SDS011;27925;41.874;12.526;2024-03-08T03:12:43;16.15;;;10.45;;
40537;SDS011;27925;41.874;12.526;2024-03-08T03:15:10;16.40;;;10.82;;
40537;SDS011;27925;41.874;12.526;2024-03-08T03:17:37;19.50;;;10.43;;
40537;SDS011;27925;41.874;12.526;2024-03-08T03:20:04;15.68;;;10.15;;
40537;SDS011;27925;41.874;12.526;2024-03-08T03:22:40;13.63;;;10.00;;
40537;SDS011;27925;41.874;12.526;2024-03-08T03:25:06;14.80;;;10.20;;
40537;SDS011;27925;41.874;12.526;2024-03-08T03:27:36;18.05;;;9.98;;
40537;SDS011;27925;41.874;12.526;2024-03-08T03:30:02;15.98;;;9.57;;
40537;SDS011;27925;41.874;12.526;2024-03-08T03:32:46;14.57;;;9.55;;
40537;SDS011;27925;41.874;12.526;2024-03-08T03:35:12;16.88;;;9.40;;
40537;SDS011;27925;41.874;12.526;2024-03-08T03:37:40;13.20;;;8.82;;
40537;SDS011;27925;41.874;12.526;2024-03-08T03:40:08;14.88;;;9.32;;
40537;SDS011;27925;41.874;12.526;2024-03-08T03:42:34;15.75;;;9.10;;
40537;SDS011;27925;41.874;12.526;2024-03-08T03:45:00;12.55;;;8.57;;
40537;SDS011;27925;41.874;12.526;2024-03-08T03:47:27;12.68;;;8.50;;
40537;SDS011;27925;41.874;12.526;2024-03-08T03:49:53;12.98;;;8.57;;
40537;SDS011;27925;41.874;12.526;2024-03-08T03:52:19;12.90;;;8.07;;
40537;SDS011;27925;41.874;12.526;2024-03-08T03:54:45;14.82;;;9.45;;
40537;SDS011;27925;41.874;12.526;2024-03-08T03:57:11;12.38;;;8.07;;
40537;SDS011;27925;41.874;12.526;2024-03-08T03:59:37;16.88;;;10.57;;
40537;SDS011;27925;41.874;12.526;2024-03-08T04:02:03;15.63;;;8.38;;
40537;SDS011;27925;41.874;12.526;2024-03-08T04:04:29;11.88;;;8.25;;
40537;SDS011;27925;41.874;12.526;2024-03-08T04:06:54;14.57;;;8.88;;
40537;SDS011;27925;41.874;12.526;2024-03-08T04:09:20;13.90;;;9.50;;
40537;SDS011;27925;41.874;12.526;2024-03-08T04:11:47;12.55;;;8.25;;
40537;SDS011;27925;41.874;12.526;2024-03-08T04:14:14;15.20;;;9.38;;
40537;SDS011;27925;41.874;12.526;2024-03-08T04:16:39;16.50;;;9.32;;
40537;SDS011;27925;41.874;12.526;2024-03-08T04:19:05;14.57;;;9.35;;
40537;SDS011;27925;41.874;12.526;2024-03-08T04:21:30;15.43;;;9.45;;
40537;SDS011;27925;41.874;12.526;2024-03-08T04:23:56;14.38;;;9.13;;
40537;SDS011;27925;41.874;12.526;2024-03-08T04:26:22;17.95;;;9.70;;
40537;SDS011;27925;41.874;12.526;2024-03-08T04:28:48;13.60;;;9.82;;
40537;SDS011;27925;41.874;12.526;2024-03-08T04:31:13;14.50;;;9.00;;
40537;SDS011;27925;41.874;12.526;2024-03-08T04:33:40;15.55;;;9.68;;
40537;SDS011;27925;41.874;12.526;2024-03-08T04:36:06;15.70;;;9.65;;
40537;SDS011;27925;41.874;12.526;2024-03-08T04:38:32;14.80;;;9.43;;
40537;SDS011;27925;41.874;12.526;2024-03-08T04:40:58;14.70;;;9.43;;
40537;SDS011;27925;41.874;12.526;2024-03-08T04:43:27;16.52;;;9.68;;
40537;SDS011;27925;41.874;12.526;2024-03-08T04:45:55;16.75;;;10.20;;
40537;SDS011;27925;41.874;12.526;2024-03-08T04:48:21;14.70;;;9.13;;
40537;SDS011;27925;41.874;12.526;2024-03-08T04:50:46;12.82;;;9.38;;
40537;SDS011;27925;41.874;12.526;2024-03-08T04:53:12;15.18;;;9.98;;
40537;SDS011;27925;41.874;12.526;2024-03-08T04:55:38;15.75;;;9.55;;
40537;SDS011;27925;41.874;12.526;2024-03-08T04:58:04;18.42;;;10.52;;
40537;SDS011;27925;41.874;12.526;2024-03-08T05:00:33;17.40;;;9.70;;
40537;SDS011;27925;41.874;12.526;2024-03-08T05:02:58;14.70;;;9.10;;
40537;SDS011;27925;41.874;12.526;2024-03-08T05:05:24;15.65;;;8.95;;
40537;SDS011;27925;41.874;12.526;2024-03-08T05:07:51;14.30;;;9.05;;
40537;SDS011;27925;41.874;12.526;2024-03-08T05:10:16;13.48;;;9.48;;
40537;SDS011;27925;41.874;12.526;2024-03-08T05:12:42;14.95;;;9.50;;
40537;SDS011;27925;41.874;12.526;2024-03-08T05:15:08;15.00;;;9.32;;
40537;SDS011;27925;41.874;12.526;2024-03-08T05:17:34;14.20;;;8.90;;
40537;SDS011;27925;41.874;12.526;2024-03-08T05:20:00;13.73;;;9.65;;
40537;SDS011;27925;41.874;12.526;2024-03-08T05:22:25;14.07;;;8.80;;
40537;SDS011;27925;41.874;12.526;2024-03-08T05:24:51;14.30;;;9.23;;
40537;SDS011;27925;41.874;12.526;2024-03-08T05:27:17;11.93;;;9.00;;
40537;SDS011;27925;41.874;12.526;2024-03-08T05:29:42;18.33;;;9.30;;
40537;SDS011;27925;41.874;12.526;2024-03-08T05:32:08;22.42;;;9.90;;
40537;SDS011;27925;41.874;12.526;2024-03-08T05:34:35;14.18;;;9.73;;
40537;SDS011;27925;41.874;12.526;2024-03-08T05:37:01;15.02;;;8.93;;
40537;SDS011;27925;41.874;12.526;2024-03-08T05:39:27;16.13;;;9.35;;
40537;SDS011;27925;41.874;12.526;2024-03-08T05:41:53;14.95;;;8.98;;
40537;SDS011;27925;41.874;12.526;2024-03-08T05:44:20;14.93;;;9.57;;
40537;SDS011;27925;41.874;12.526;2024-03-08T05:46:46;14.30;;;9.15;;
40537;SDS011;27925;41.874;12.526;2024-03-08T05:49:11;16.15;;;9.75;;
40537;SDS011;27925;41.874;12.526;2024-03-08T05:51:39;17.35;;;9.70;;
40537;SDS011;27925;41.874;12.526;2024-03-08T05:54:14;15.43;;;9.18;;
40537;SDS011;27925;41.874;12.526;2024-03-08T05:56:40;17.45;;;9.20;;
40537;SDS011;27925;41.874;12.526;2024-03-08T05:59:07;14.23;;;8.77;;
40537;SDS011;27925;41.874;12.526;2024-03-08T06:01:33;15.00;;;8.85;;
40537;SDS011;27925;41.874;12.526;2024-03-08T06:04:01;17.27;;;9.25;;
40537;SDS011;27925;41.874;12.526;2024-03-08T06:06:27;14.32;;;9.40;;
40537;SDS011;27925;41.874;12.526;2024-03-08T06:08:53;14.85;;;9.57;;
40537;SDS011;27925;41.874;12.526;2024-03-08T06:11:21;16.02;;;9.43;;
40537;SDS011;27925;41.874;12.526;2024-03-08T06:13:48;14.82;;;9.40;;
40537;SDS011;27925;41.874;12.526;2024-03-08T06:16:14;16.60;;;9.20;;
40537;SDS011;27925;41.874;12.526;2024-03-08T06:18:40;14.75;;;9.82;;
40537;SDS011;27925;41.874;12.526;2024-03-08T06:21:06;14.23;;;9.13;;
40537;SDS011;27925;41.874;12.526;2024-03-08T06:23:37;14.07;;;9.48;;
40537;SDS011;27925;41.874;12.526;2024-03-08T06:26:06;19.40;;;9.35;;
40537;SDS011;27925;41.874;12.526;2024-03-08T06:28:33;15.27;;;9.85;;
40537;SDS011;27925;41.874;12.526;2024-03-08T06:31:00;16.08;;;9.90;;
40537;SDS011;27925;41.874;12.526;2024-03-08T06:33:26;16.08;;;10.00;;
40537;SDS011;27925;41.874;12.526;2024-03-08T06:35:53;14.90;;;9.45;;
40537;SDS011;27925;41.874;12.526;2024-03-08T06:38:22;14.80;;;9.60;;
40537;SDS011;27925;41.874;12.526;2024-03-08T06:40:48;14.68;;;9.57;;
40537;SDS011;27925;41.874;12.526;2024-03-08T06:43:14;16.83;;;10.32;;
40537;SDS011;27925;41.874;12.526;2024-03-08T06:45:50;13.45;;;9.73;;
40537;SDS011;27925;41.874;12.526;2024-03-08T06:48:16;15.82;;;9.90;;
40537;SDS011;27925;41.874;12.526;2024-03-08T06:50:43;13.77;;;9.00;;
40537;SDS011;27925;41.874;12.526;2024-03-08T06:53:10;15.35;;;9.43;;
40537;SDS011;27925;41.874;12.526;2024-03-08T06:55:36;15.57;;;10.05;;
40537;SDS011;27925;41.874;12.526;2024-03-08T06:58:02;13.88;;;9.68;;
40537;SDS011;27925;41.874;12.526;2024-03-08T07:00:28;15.50;;;9.35;;
40537;SDS011;27925;41.874;12.526;2024-03-08T07:02:55;17.25;;;11.40;;
40537;SDS011;27925;41.874;12.526;2024-03-08T07:05:25;15.10;;;10.15;;
40537;SDS011;27925;41.874;12.526;2024-03-08T07:07:54;19.02;;;9.75;;
40537;SDS011;27925;41.874;12.526;2024-03-08T07:10:20;16.42;;;9.88;;
40537;SDS011;27925;41.874;12.526;2024-03-08T07:12:49;14.95;;;9.80;;
40537;SDS011;27925;41.874;12.526;2024-03-08T07:15:15;17.00;;;10.23;;
40537;SDS011;27925;41.874;12.526;2024-03-08T07:17:44;18.23;;;9.75;;
40537;SDS011;27925;41.874;12.526;2024-03-08T07:20:10;17.27;;;10.50;;
40537;SDS011;27925;41.874;12.526;2024-03-08T07:22:38;19.27;;;9.75;;
40537;SDS011;27925;41.874;12.526;2024-03-08T07:25:07;17.88;;;9.95;;
40537;SDS011;27925;41.874;12.526;2024-03-08T07:27:42;16.65;;;9.68;;
40537;SDS011;27925;41.874;12.526;2024-03-08T07:30:08;15.20;;;9.55;;
40537;SDS011;27925;41.874;12.526;2024-03-08T07:32:37;17.65;;;9.63;;
40537;SDS011;27925;41.874;12.526;2024-03-08T07:35:03;18.77;;;10.63;;
40537;SDS011;27925;41.874;12.526;2024-03-08T07:37:29;17.58;;;10.63;;
40537;SDS011;27925;41.874;12.526;2024-03-08T07:39:55;15.60;;;9.15;;
40537;SDS011;27925;41.874;12.526;2024-03-08T07:42:21;15.95;;;10.13;;
40537;SDS011;27925;41.874;12.526;2024-03-08T07:44:48;18.40;;;9.38;;
40537;SDS011;27925;41.874;12.526;2024-03-08T07:47:15;16.83;;;9.50;;
40537;SDS011;27925;41.874;12.526;2024-03-08T07:49:42;16.80;;;10.18;;
40537;SDS011;27925;41.874;12.526;2024-03-08T07:52:09;14.50;;;9.20;;
40537;SDS011;27925;41.874;12.526;2024-03-08T07:54:40;21.80;;;9.73;;
40537;SDS011;27925;41.874;12.526;2024-03-08T07:57:06;19.17;;;10.45;;
40537;SDS011;27925;41.874;12.526;2024-03-08T07:59:32;16.00;;;10.18;;
40537;SDS011;27925;41.874;12.526;2024-03-08T08:01:58;22.40;;;10.75;;
40537;SDS011;27925;41.874;12.526;2024-03-08T08:04:24;17.85;;;9.85;;
40537;SDS011;27925;41.874;12.526;2024-03-08T08:06:50;21.45;;;10.30;;
40537;SDS011;27925;41.874;12.526;2024-03-08T08:09:16;17.52;;;10.20;;
40537;SDS011;27925;41.874;12.526;2024-03-08T08:11:53;17.67;;;9.60;;
40537;SDS011;27925;41.874;12.526;2024-03-08T08:14:19;18.27;;;10.30;;
40537;SDS011;27925;41.874;12.526;2024-03-08T08:16:46;18.50;;;10.32;;
40537;SDS011;27925;41.874;12.526;2024-03-08T08:19:13;16.38;;;9.60;;
40537;SDS011;27925;41.874;12.526;2024-03-08T08:21:40;20.52;;;10.98;;
40537;SDS011;27925;41.874;12.526;2024-03-08T08:24:06;17.27;;;9.65;;
40537;SDS011;27925;41.874;12.526;2024-03-08T08:26:32;18.48;;;9.70;;
40537;SDS011;27925;41.874;12.526;2024-03-08T08:28:59;18.35;;;10.68;;
40537;SDS011;27925;41.874;12.526;2024-03-08T08:31:25;25.52;;;13.77;;
40537;SDS011;27925;41.874;12.526;2024-03-08T08:33:51;16.65;;;10.05;;
40537;SDS011;27925;41.874;12.526;2024-03-08T08:36:23;17.20;;;9.30;;
40537;SDS011;27925;41.874;12.526;2024-03-08T08:38:54;16.17;;;10.52;;
40537;SDS011;27925;41.874;12.526;2024-03-08T08:41:21;21.23;;;10.73;;
40537;SDS011;27925;41.874;12.526;2024-03-08T08:43:47;18.65;;;11.90;;
40537;SDS011;27925;41.874;12.526;2024-03-08T08:46:16;20.83;;;10.68;;
40537;SDS011;27925;41.874;12.526;2024-03-08T08:48:42;17.02;;;9.45;;
40537;SDS011;27925;41.874;12.526;2024-03-08T08:51:10;16.00;;;9.25;;
40537;SDS011;27925;41.874;12.526;2024-03-08T08:53:39;14.52;;;8.55;;
40537;SDS011;27925;41.874;12.526;2024-03-08T08:56:14;11.10;;;7.22;;
40537;SDS011;27925;41.874;12.526;2024-03-08T08:58:41;11.95;;;6.63;;
40537;SDS011;27925;41.874;12.526;2024-03-08T09:01:08;13.27;;;6.50;;
40537;SDS011;27925;41.874;12.526;2024-03-08T09:03:35;12.50;;;7.00;;
40537;SDS011;27925;41.874;12.526;2024-03-08T09:06:02;14.60;;;6.50;;
40537;SDS011;27925;41.874;12.526;2024-03-08T09:08:35;11.77;;;6.03;;
40537;SDS011;27925;41.874;12.526;2024-03-08T09:11:01;11.95;;;6.38;;
40537;SDS011;27925;41.874;12.526;2024-03-08T09:13:26;13.00;;;6.00;;
40537;SDS011;27925;41.874;12.526;2024-03-08T09:15:52;11.73;;;5.53;;
40537;SDS011;27925;41.874;12.526;2024-03-08T09:18:18;10.95;;;5.60;;
40537;SDS011;27925;41.874;12.526;2024-03-08T09:20:44;11.60;;;5.30;;
40537;SDS011;27925;41.874;12.526;2024-03-08T09:23:10;10.80;;;5.38;;
40537;SDS011;27925;41.874;12.526;2024-03-08T09:25:35;15.15;;;5.53;;
40537;SDS011;27925;41.874;12.526;2024-03-08T09:28:01;12.85;;;5.05;;
40537;SDS011;27925;41.874;12.526;2024-03-08T09:30:27;11.75;;;5.00;;
40537;SDS011;27925;41.874;12.526;2024-03-08T09:32:53;7.60;;;4.25;;
40537;SDS011;27925;41.874;12.526;2024-03-08T09:35:19;11.85;;;4.85;;
40537;SDS011;27925;41.874;12.526;2024-03-08T09:37:45;15.15;;;5.25;;
40537;SDS011;27925;41.874;12.526;2024-03-08T09:40:12;9.27;;;4.45;;
40537;SDS011;27925;41.874;12.526;2024-03-08T09:42:40;11.77;;;4.65;;
40537;SDS011;27925;41.874;12.526;2024-03-08T09:45:11;8.85;;;5.45;;
40537;SDS011;27925;41.874;12.526;2024-03-08T09:47:44;9.63;;;4.57;;
40537;SDS011;27925;41.874;12.526;2024-03-08T09:50:10;8.43;;;4.28;;
40537;SDS011;27925;41.874;12.526;2024-03-08T09:52:40;8.68;;;4.35;;
40537;SDS011;27925;41.874;12.526;2024-03-08T09:55:08;11.48;;;4.43;;
40537;SDS011;27925;41.874;12.526;2024-03-08T09:57:36;15.52;;;5.05;;
40537;SDS011;27925;41.874;12.526;2024-03-08T10:00:03;8.50;;;3.75;;
40537;SDS011;27925;41.874;12.526;2024-03-08T10:02:49;7.07;;;3.08;;
40537;SDS011;27925;41.874;12.526;2024-03-08T10:05:17;7.80;;;3.17;;
40537;SDS011;27925;41.874;12.526;2024-03-08T10:07:43;9.70;;;3.20;;
40537;SDS011;27925;41.874;12.526;2024-03-08T10:10:09;7.55;;;3.20;;
40537;SDS011;27925;41.874;12.526;2024-03-08T10:12:37;7.40;;;3.38;;
40537;SDS011;27925;41.874;12.526;2024-03-08T10:15:06;10.15;;;3.03;;
40537;SDS011;27925;41.874;12.526;2024-03-08T10:17:34;8.07;;;3.15;;
40537;SDS011;27925;41.874;12.526;2024-03-08T10:20:00;7.05;;;3.28;;
40537;SDS011;27925;41.874;12.526;2024-03-08T10:22:27;6.35;;;3.10;;
40537;SDS011;27925;41.874;12.526;2024-03-08T10:24:54;7.05;;;3.08;;
40537;SDS011;27925;41.874;12.526;2024-03-08T10:27:20;7.53;;;3.20;;
40537;SDS011;27925;41.874;12.526;2024-03-08T10:29:48;8.00;;;3.00;;
40537;SDS011;27925;41.874;12.526;2024-03-08T10:32:16;9.27;;;3.50;;
40537;SDS011;27925;41.874;12.526;2024-03-08T10:34:42;8.30;;;3.80;;
40537;SDS011;27925;41.874;12.526;2024-03-08T10:37:11;16.15;;;6.43;;
40537;SDS011;27925;41.874;12.526;2024-03-08T10:39:42;8.43;;;3.30;;
40537;SDS011;27925;41.874;12.526;2024-03-08T10:42:17;6.53;;;2.60;;
40537;SDS011;27925;41.874;12.526;2024-03-08T10:44:58;8.73;;;2.63;;
40537;SDS011;27925;41.874;12.526;2024-03-08T10:47:32;7.40;;;2.38;;
40537;SDS011;27925;41.874;12.526;2024-03-08T10:52:38;8.07;;;2.78;;
40537;SDS011;27925;41.874;12.526;2024-03-08T10:55:04;8.60;;;2.63;;
40537;SDS011;27925;41.874;12.526;2024-03-08T10:57:37;6.90;;;2.88;;
40537;SDS011;27925;41.874;12.526;2024-03-08T11:00:04;5.72;;;2.30;;
40537;SDS011;27925;41.874;12.526;2024-03-08T11:02:35;9.80;;;2.90;;
40537;SDS011;27925;41.874;12.526;2024-03-08T11:05:01;6.80;;;2.60;;
40537;SDS011;27925;41.874;12.526;2024-03-08T11:07:30;8.02;;;2.80;;
40537;SDS011;27925;41.874;12.526;2024-03-08T11:09:59;8.88;;;2.50;;
40537;SDS011;27925;41.874;12.526;2024-03-08T11:12:35;10.73;;;3.00;;
40537;SDS011;27925;41.874;12.526;2024-03-08T11:15:03;7.38;;;2.60;;
40537;SDS011;27925;41.874;12.526;2024-03-08T11:20:06;6.75;;;2.65;;
40537;SDS011;27925;41.874;12.526;2024-03-08T11:22:47;7.15;;;2.22;;
40537;SDS011;27925;41.874;12.526;2024-03-08T11:25:30;10.00;;;2.60;;
40537;SDS011;27925;41.874;12.526;2024-03-08T11:28:07;11.35;;;2.65;;
40537;SDS011;27925;41.874;12.526;2024-03-08T11:30:35;6.38;;;2.63;;
40537;SDS011;27925;41.874;12.526;2024-03-08T11:33:03;6.82;;;2.47;;
40537;SDS011;27925;41.874;12.526;2024-03-08T11:35:29;7.10;;;2.90;;
40537;SDS011;27925;41.874;12.526;2024-03-08T11:37:58;10.93;;;3.33;;
40537;SDS011;27925;41.874;12.526;2024-03-08T11:40:25;7.22;;;2.47;;
40537;SDS011;27925;41.874;12.526;2024-03-08T11:42:51;7.07;;;2.17;;
40537;SDS011;27925;41.874;12.526;2024-03-08T11:45:17;8.30;;;2.17;;
40537;SDS011;27925;41.874;12.526;2024-03-08T11:47:46;8.85;;;2.97;;
40537;SDS011;27925;41.874;12.526;2024-03-08T11:50:12;7.00;;;2.00;;
40537;SDS011;27925;41.874;12.526;2024-03-08T11:52:39;5.80;;;2.30;;
40537;SDS011;27925;41.874;12.526;2024-03-08T11:55:05;8.63;;;2.00;;
40537;SDS011;27925;41.874;12.526;2024-03-08T11:57:31;5.75;;;2.30;;
40537;SDS011;27925;41.874;12.526;2024-03-08T11:59:58;5.95;;;2.20;;
40537;SDS011;27925;41.874;12.526;2024-03-08T12:02:31;3.97;;;1.80;;
40537;SDS011;27925;41.874;12.526;2024-03-08T12:05:00;5.55;;;1.88;;
40537;SDS011;27925;41.874;12.526;2024-03-08T12:07:28;4.70;;;2.20;;
40537;SDS011;27925;41.874;12.526;2024-03-08T12:12:51;5.80;;;1.98;;
40537;SDS011;27925;41.874;12.526;2024-03-08T12:15:18;6.40;;;1.92;;
40537;SDS011;27925;41.874;12.526;2024-03-08T12:17:46;6.30;;;2.38;;
40537;SDS011;27925;41.874;12.526;2024-03-08T12:20:17;5.95;;;2.22;;
40537;SDS011;27925;41.874;12.526;2024-03-08T12:22:47;6.55;;;2.20;;
40537;SDS011;27925;41.874;12.526;2024-03-08T12:25:14;5.60;;;1.70;;
40537;SDS011;27925;41.874;12.526;2024-03-08T12:27:41;6.03;;;2.20;;
40537;SDS011;27925;41.874;12.526;2024-03-08T12:32:59;7.22;;;2.50;;
40537;SDS011;27925;41.874;12.526;2024-03-08T12:35:28;6.30;;;2.10;;
40537;SDS011;27925;41.874;12.526;2024-03-08T12:37:56;6.60;;;2.55;;
40537;SDS011;27925;41.874;12.526;2024-03-08T12:40:25;11.05;;;3.33;;
40537;SDS011;27925;41.874;12.526;2024-03-08T12:42:53;7.85;;;2.10;;
40537;SDS011;27925;41.874;12.526;2024-03-08T12:45:22;4.35;;;1.70;;
40537;SDS011;27925;41.874;12.526;2024-03-08T12:47:51;6.57;;;2.05;;
40537;SDS011;27925;41.874;12.526;2024-03-08T12:50:21;6.45;;;1.88;;
40537;SDS011;27925;41.874;12.526;2024-03-08T12:52:48;4.28;;;2.30;;
40537;SDS011;27925;41.874;12.526;2024-03-08T12:55:14;8.82;;;1.92;;
40537;SDS011;27925;41.874;12.526;2024-03-08T12:57:41;7.40;;;1.85;;
40537;SDS011;27925;41.874;12.526;2024-03-08T13:00:08;6.70;;;2.00;;
40537;SDS011;27925;41.874;12.526;2024-03-08T13:02:38;6.50;;;1.80;;
40537;SDS011;27925;41.874;12.526;2024-03-08T13:05:05;5.60;;;2.20;;
40537;SDS011;27925;41.874;12.526;2024-03-08T13:07:31;10.80;;;2.28;;
40537;SDS011;27925;41.874;12.526;2024-03-08T13:09:57;11.52;;;6.90;;
40537;SDS011;27925;41.874;12.526;2024-03-08T13:12:25;5.95;;;2.25;;
40537;SDS011;27925;41.874;12.526;2024-03-08T22:51:14;5.13;;;1.60;;
40537;SDS011;27925;41.874;12.526;2024-03-08T22:53:41;5.18;;;2.00;;
40537;SDS011;27925;41.874;12.526;2024-03-08T22:56:08;4.00;;;1.65;;
40537;SDS011;27925;41.874;12.526;2024-03-08T22:58:34;6.90;;;2.00;;
40537;SDS011;27925;41.874;12.526;2024-03-08T23:01:02;4.32;;;1.75;;
40537;SDS011;27925;41.874;12.526;2024-03-08T23:03:28;3.85;;;1.85;;
40537;SDS011;27925;41.874;12.526;2024-03-08T23:06:00;4.05;;;2.25;;
40537;SDS011;27925;41.874;12.526;2024-03-08T23:08:25;4.65;;;1.80;;
40537;SDS011;27925;41.874;12.526;2024-03-08T23:10:54;2.65;;;1.48;;
40537;SDS011;27925;41.874;12.526;2024-03-08T23:13:22;3.92;;;1.60;;
40537;SDS011;27925;41.874;12.526;2024-03-08T23:15:50;5.13;;;1.77;;
40537;SDS011;27925;41.874;12.526;2024-03-08T23:18:16;2.55;;;1.40;;
40537;SDS011;27925;41.874;12.526;2024-03-08T23:20:43;6.18;;;1.30;;
40537;SDS011;27925;41.874;12.526;2024-03-08T23:23:12;3.30;;;1.40;;
40537;SDS011;27925;41.874;12.526;2024-03-08T23:25:38;4.13;;;1.40;;
40537;SDS011;27925;41.874;12.526;2024-03-08T23:28:05;4.75;;;1.38;;
40537;SDS011;27925;41.874;12.526;2024-03-08T23:30:33;3.63;;;1.45;;
40537;SDS011;27925;41.874;12.526;2024-03-08T23:33:04;3.45;;;1.40;;
40537;SDS011;27925;41.874;12.526;2024-03-08T23:35:31;3.28;;;1.08;;
40537;SDS011;27925;41.874;12.526;2024-03-08T23:37:57;3.22;;;1.30;;
40537;SDS011;27925;41.874;12.526;2024-03-08T23:40:23;3.65;;;1.70;;
40537;SDS011;27925;41.874;12.526;2024-03-08T23:42:49;3.42;;;1.50;;
40537;SDS011;27925;41.874;12.526;2024-03-08T23:45:22;3.63;;;1.70;;
40537;SDS011;27925;41.874;12.526;2024-03-08T23:47:48;4.22;;;1.50;;
40537;SDS011;27925;41.874;12.526;2024-03-08T23:50:16;5.15;;;1.77;;
40537;SDS011;27925;41.874;12.526;2024-03-08T23:52:47;3.53;;;1.80;;
40537;SDS011;27925;41.874;12.526;2024-03-08T23:55:15;3.67;;;1.30;;
40537;SDS011;27925;41.874;12.526;2024-03-08T23:57:54;3.92;;;1.35;;
